Time;durP1;ratioP1;P1;durP2;ratioP2;P2;SDS_P1;SDS_P2;PMS_P1;PMS_P2;Temp;Humidity;BMP_temperature;BMP_pressure;BME280_temperature;BME280_humidity;BME280_pressure;Samples;Min_cycle;Max_cycle;Signal;HPM_P1;HPM_P2
2023/01/10 10:58:29;;;;;;;0.23;0.23;;;;;;;;;;7389761;19;20196;-60
2023/01/10 11:00:56;;;;;;;0.37;0.37;;;;;;;;;;7379351;19;20133;-61
2023/01/10 11:03:37;;;;;;;0.60;0.60;;;;;;;;;;7377073;19;20610;-61
2023/01/10 11:06:05;;;;;;;0.30;0.30;;;;;;;;;;7382050;19;20121;-60
2023/01/10 11:08:30;;;;;;;0.40;0.40;;;;;;;;;;7385922;19;20144;-60
2023/01/10 11:10:57;;;;;;;0.73;0.37;;;;;;;;;;7386560;19;20152;-60
2023/01/10 11:13:32;;;;;;;0.30;0.30;;;;;;;;;;7380581;19;20153;-60
2023/01/10 11:15:58;;;;;;;0.30;0.30;;;;;;;;;;7385227;19;20140;-60
2023/01/10 11:18:26;;;;;;;0.30;0.30;;;;;;;;;;7390646;19;20209;-60
2023/01/10 11:20:56;;;;;;;0.30;0.30;;;;;;;;;;7388439;19;20144;-60
2023/01/10 11:23:29;;;;;;;0.20;0.20;;;;;;;;;;7389225;19;20152;-60
2023/01/10 11:25:55;;;;;;;0.60;0.60;;;;;;;;;;7383466;19;20145;-60
2023/01/10 11:28:25;;;;;;;0.30;0.30;;;;;;;;;;7381855;19;20157;-60
2023/01/10 11:30:51;;;;;;;0.30;0.30;;;;;;;;;;7383659;19;20134;-60
2023/01/10 11:33:25;;;;;;;0.30;0.30;;;;;;;;;;7372721;19;20145;-60
2023/01/10 11:36:11;;;;;;;0.20;0.20;;;;;;;;;;7374384;19;20163;-60
2023/01/10 11:38:37;;;;;;;0.30;0.30;;;;;;;;;;7362636;19;20130;-60
2023/01/10 11:41:05;;;;;;;0.60;0.60;;;;;;;;;;7368602;19;20117;-60
2023/01/10 11:43:36;;;;;;;0.30;0.30;;;;;;;;;;7386968;19;20145;-60
2023/01/10 11:46:04;;;;;;;0.30;0.30;;;;;;;;;;7388816;19;20132;-60
2023/01/10 11:48:43;;;;;;;6.80;0.80;;;;;;;;;;7369459;19;20133;-60
2023/01/10 11:51:18;;;;;;;0.40;0.40;;;;;;;;;;7384206;19;20492;-60
2023/01/10 11:53:44;;;;;;;0.30;0.30;;;;;;;;;;7376840;19;20157;-60
2023/01/10 11:56:12;;;;;;;0.30;0.30;;;;;;;;;;7361567;19;20197;-60
2023/01/10 11:58:38;;;;;;;0.30;0.30;;;;;;;;;;7375814;19;20121;-60
2023/01/10 12:01:04;;;;;;;0.20;0.20;;;;;;;;;;7362801;19;20522;-61
2023/01/10 12:03:39;;;;;;;0.20;0.20;;;;;;;;;;7383398;19;20155;-60
2023/01/10 12:06:14;;;;;;;0.20;0.20;;;;;;;;;;7376840;19;20682;-61
2023/01/10 12:08:43;;;;;;;0.20;0.20;;;;;;;;;;7377725;19;20475;-61
2023/01/10 12:11:28;;;;;;;0.30;0.30;;;;;;;;;;7375551;19;20141;-61
2023/01/10 12:13:56;;;;;;;0.30;0.30;;;;;;;;;;7372607;19;20156;-61
2023/01/10 12:16:29;;;;;;;0.20;0.20;;;;;;;;;;7367057;19;20148;-60
2023/01/10 12:18:59;;;;;;;0.20;0.20;;;;;;;;;;7381007;19;20128;-61
2023/01/10 12:21:37;;;;;;;0.83;0.63;;;;;;;;;;7383128;19;20157;-61
2023/01/10 12:24:08;;;;;;;0.30;0.30;;;;;;;;;;7371236;19;20144;-61
2023/01/10 12:26:33;;;;;;;0.30;0.30;;;;;;;;;;7374842;19;20477;-61
2023/01/10 12:29:07;;;;;;;0.40;0.40;;;;;;;;;;7383296;19;20192;-61
2023/01/10 12:31:33;;;;;;;0.30;0.30;;;;;;;;;;7386823;19;20151;-61
2023/01/10 12:34:06;;;;;;;0.20;0.20;;;;;;;;;;7368586;19;20157;-61
2023/01/10 12:36:43;;;;;;;0.20;0.20;;;;;;;;;;7378735;19;20145;-61
2023/01/10 12:39:22;;;;;;;0.30;0.30;;;;;;;;;;7371263;19;20121;-61
2023/01/10 12:44:44;;;;;;;1.65;0.75;;;;;;;;;;7384611;19;20152;-62
2023/01/10 12:47:47;;;;;;;0.30;0.30;;;;;;;;;;7381377;19;20121;-62
2023/01/10 12:50:29;;;;;;;0.40;0.40;;;;;;;;;;7369649;19;20129;-61
2023/01/10 12:53:15;;;;;;;0.30;0.30;;;;;;;;;;7376266;19;20214;-62
2023/01/10 12:55:43;;;;;;;0.30;0.30;;;;;;;;;;7380984;19;20598;-62
2023/01/10 12:58:27;;;;;;;1.88;0.55;;;;;;;;;;7374988;19;20117;-65
2023/01/10 13:00:57;;;;;;;0.50;0.50;;;;;;;;;;7375476;19;20139;-65
2023/01/10 13:03:26;;;;;;;0.52;0.52;;;;;;;;;;7382256;19;20152;-64
2023/01/10 13:05:53;;;;;;;0.25;0.25;;;;;;;;;;7379901;19;20121;-64
2023/01/10 13:08:22;;;;;;;0.32;0.32;;;;;;;;;;7373723;19;20129;-65
2023/01/10 13:10:50;;;;;;;0.40;0.40;;;;;;;;;;7375660;19;20124;-64
2023/01/10 13:13:35;;;;;;;0.30;0.30;;;;;;;;;;7375984;19;20187;-64
2023/01/10 13:16:39;;;;;;;0.30;0.30;;;;;;;;;;7372320;19;20625;-64
2023/01/10 13:19:10;;;;;;;0.60;0.60;;;;;;;;;;7376858;19;20141;-64
2023/01/10 13:21:37;;;;;;;1.85;0.90;;;;;;;;;;7380463;19;20127;-64
2023/01/10 13:24:05;;;;;;;0.30;0.30;;;;;;;;;;7368336;19;20612;-65
2023/01/10 13:26:52;;;;;;;0.50;0.50;;;;;;;;;;7369347;19;20124;-65
2023/01/10 13:29:20;;;;;;;0.40;0.40;;;;;;;;;;7354458;19;20128;-64
2023/01/10 13:31:48;;;;;;;0.38;0.38;;;;;;;;;;7361836;19;20125;-65
2023/01/10 13:34:15;;;;;;;0.30;0.30;;;;;;;;;;7364907;19;20149;-64
2023/01/10 13:36:59;;;;;;;0.38;0.38;;;;;;;;;;7377357;19;20145;-64
2023/01/10 13:39:34;;;;;;;0.35;0.35;;;;;;;;;;7375926;19;20142;-64
2023/01/10 13:44:59;;;;;;;0.40;0.40;;;;;;;;;;7365553;19;20139;-64
2023/01/10 13:47:39;;;;;;;0.30;0.30;;;;;;;;;;7358531;19;20196;-64
2023/01/10 13:50:23;;;;;;;0.30;0.30;;;;;;;;;;7375644;19;20129;-63
2023/01/10 13:53:05;;;;;;;0.30;0.30;;;;;;;;;;7375238;19;20153;-61
2023/01/10 13:55:37;;;;;;;0.38;0.38;;;;;;;;;;7368833;19;20124;-61
2023/01/10 13:58:13;;;;;;;0.30;0.30;;;;;;;;;;7373032;19;20154;-61
2023/01/10 14:03:42;;;;;;;2.50;0.65;;;;;;;;;;7345009;19;20162;-61
2023/01/10 14:06:16;;;;;;;0.30;0.30;;;;;;;;;;7357540;19;20994;-62
2023/01/10 14:08:51;;;;;;;0.30;0.30;;;;;;;;;;7348541;19;20132;-62
2023/01/10 14:11:17;;;;;;;0.20;0.20;;;;;;;;;;7352904;19;20128;-61
2023/01/10 14:13:51;;;;;;;0.43;0.43;;;;;;;;;;7356518;19;20172;-61
2023/01/10 14:16:33;;;;;;;0.50;0.50;;;;;;;;;;7349760;19;20128;-62
2023/01/10 14:18:59;;;;;;;0.30;0.30;;;;;;;;;;7339871;19;20121;-61
2023/01/10 14:21:26;;;;;;;0.30;0.30;;;;;;;;;;7346236;19;20174;-60
2023/01/10 14:23:53;;;;;;;0.20;0.20;;;;;;;;;;7354096;19;20160;-61
2023/01/10 14:26:31;;;;;;;0.40;0.40;;;;;;;;;;7349611;19;20133;-61
2023/01/10 14:28:59;;;;;;;0.30;0.30;;;;;;;;;;7363053;19;20143;-60
2023/01/10 14:31:25;;;;;;;0.20;0.20;;;;;;;;;;7376968;19;20140;-60
2023/01/10 14:33:50;;;;;;;0.20;0.20;;;;;;;;;;7376422;19;20532;-60
2023/01/10 14:36:22;;;;;;;0.30;0.30;;;;;;;;;;7375575;19;20478;-60
2023/01/10 14:38:48;;;;;;;0.40;0.40;;;;;;;;;;7384968;19;20128;-60
2023/01/10 14:41:33;;;;;;;0.20;0.20;;;;;;;;;;7376614;19;21326;-60
2023/01/10 14:44:17;;;;;;;0.30;0.30;;;;;;;;;;7383090;19;20152;-60
2023/01/10 14:46:51;;;;;;;0.20;0.20;;;;;;;;;;7376101;19;20121;-61
2023/01/10 14:49:47;;;;;;;0.40;0.40;;;;;;;;;;7376889;19;20121;-61
2023/01/10 14:52:18;;;;;;;0.73;0.60;;;;;;;;;;7377353;19;20153;-60
2023/01/10 14:54:44;;;;;;;0.67;0.67;;;;;;;;;;7378278;19;20162;-61
2023/01/10 14:57:20;;;;;;;0.30;0.30;;;;;;;;;;7379563;19;20121;-60
2023/01/10 14:59:46;;;;;;;0.33;0.33;;;;;;;;;;7375535;19;20159;-60
2023/01/10 15:02:22;;;;;;;0.30;0.30;;;;;;;;;;7371990;19;20116;-60
2023/01/10 15:05:08;;;;;;;0.30;0.30;;;;;;;;;;7378786;19;20152;-60
2023/01/10 15:07:34;;;;;;;0.40;0.40;;;;;;;;;;7376822;19;20124;-60
2023/01/10 15:10:04;;;;;;;0.57;0.57;;;;;;;;;;7367714;19;20136;-60
2023/01/10 15:12:31;;;;;;;0.47;0.47;;;;;;;;;;7362792;19;20132;-60
2023/01/10 15:15:01;;;;;;;0.73;0.60;;;;;;;;;;7351391;19;20528;-61
2023/01/10 15:17:26;;;;;;;0.30;0.30;;;;;;;;;;7370812;19;20601;-60
2023/01/10 15:19:52;;;;;;;1.83;0.40;;;;;;;;;;7372080;19;20203;-60
2023/01/10 15:22:28;;;;;;;0.30;0.30;;;;;;;;;;7374139;19;20176;-61
2023/01/10 15:25:20;;;;;;;0.50;0.50;;;;;;;;;;7360714;19;20226;-61
2023/01/10 15:27:47;;;;;;;0.20;0.20;;;;;;;;;;7377210;19;20761;-60
2023/01/10 15:30:31;;;;;;;0.47;0.47;;;;;;;;;;7370422;19;20717;-60
2023/01/10 15:33:01;;;;;;;0.30;0.30;;;;;;;;;;7363613;19;20124;-60
2023/01/10 15:35:28;;;;;;;0.30;0.30;;;;;;;;;;7360367;19;20619;-60
2023/01/10 15:37:56;;;;;;;0.23;0.23;;;;;;;;;;7370878;19;20129;-60
2023/01/10 15:40:24;;;;;;;0.20;0.20;;;;;;;;;;7354536;19;20745;-61
2023/01/10 15:42:50;;;;;;;0.30;0.30;;;;;;;;;;7355960;19;20136;-60
2023/01/10 15:45:38;;;;;;;0.30;0.30;;;;;;;;;;7375957;19;20145;-60
2023/01/10 15:48:04;;;;;;;0.40;0.40;;;;;;;;;;7379682;19;20113;-60
2023/01/10 15:50:38;;;;;;;1.70;0.70;;;;;;;;;;7365710;19;20520;-60
2023/01/10 15:53:09;;;;;;;0.33;0.30;;;;;;;;;;7358026;19;20234;-60
2023/01/10 15:55:46;;;;;;;0.30;0.30;;;;;;;;;;7376214;19;20380;-59
2023/01/10 15:58:17;;;;;;;0.20;0.20;;;;;;;;;;7367911;19;20590;-60
2023/01/10 16:00:45;;;;;;;0.30;0.30;;;;;;;;;;7370871;19;20774;-60
2023/01/10 16:03:21;;;;;;;0.30;0.30;;;;;;;;;;7376765;19;20483;-60
2023/01/10 16:05:54;;;;;;;0.50;0.50;;;;;;;;;;7357715;19;20141;-60
2023/01/10 16:08:23;;;;;;;0.30;0.30;;;;;;;;;;7367209;19;20718;-61
2023/01/10 16:10:54;;;;;;;0.40;0.40;;;;;;;;;;7369647;19;20125;-61
2023/01/10 16:13:26;;;;;;;0.40;0.40;;;;;;;;;;7363023;19;20646;-59
2023/01/10 16:15:52;;;;;;;0.40;0.40;;;;;;;;;;7377604;19;20188;-61
2023/01/10 16:18:17;;;;;;;0.30;0.30;;;;;;;;;;7380987;19;20141;-61
2023/01/10 16:20:43;;;;;;;0.30;0.30;;;;;;;;;;7371053;19;20132;-60
2023/01/10 16:23:23;;;;;;;0.30;0.30;;;;;;;;;;7355534;19;20149;-60
2023/01/10 16:25:57;;;;;;;1.50;0.67;;;;;;;;;;7376131;19;20525;-61
2023/01/10 16:28:23;;;;;;;0.50;0.50;;;;;;;;;;7375154;19;20121;-60
2023/01/10 16:30:48;;;;;;;0.40;0.40;;;;;;;;;;7378243;19;20201;-60
2023/01/10 16:33:16;;;;;;;0.83;0.50;;;;;;;;;;7377979;19;20148;-61
2023/01/10 16:35:43;;;;;;;0.70;0.70;;;;;;;;;;7365235;19;20141;-60
2023/01/10 16:38:10;;;;;;;0.47;0.47;;;;;;;;;;7367514;19;20707;-61
2023/01/10 16:40:37;;;;;;;0.53;0.53;;;;;;;;;;7371665;19;20204;-60
2023/01/10 16:43:18;;;;;;;0.43;0.43;;;;;;;;;;7374991;19;20251;-61
2023/01/10 16:45:45;;;;;;;0.40;0.40;;;;;;;;;;7366817;19;20665;-60
2023/01/10 16:48:10;;;;;;;0.63;0.63;;;;;;;;;;7378276;19;20135;-61
2023/01/10 16:50:36;;;;;;;0.30;0.30;;;;;;;;;;7379537;19;20124;-60
2023/01/10 16:53:02;;;;;;;0.57;0.57;;;;;;;;;;7374819;19;20188;-60
2023/01/10 16:55:35;;;;;;;0.43;0.43;;;;;;;;;;7369474;19;20879;-60
2023/01/10 16:58:01;;;;;;;0.60;0.60;;;;;;;;;;7376247;19;20607;-60
2023/01/10 17:00:26;;;;;;;0.40;0.40;;;;;;;;;;7368571;19;20124;-59
2023/01/10 17:02:51;;;;;;;0.70;0.70;;;;;;;;;;7377271;19;20192;-59
2023/01/10 17:05:17;;;;;;;0.47;0.37;;;;;;;;;;7372155;19;20133;-61
2023/01/10 17:07:42;;;;;;;0.70;0.70;;;;;;;;;;7370418;19;20163;-60
2023/01/10 17:10:08;;;;;;;0.50;0.50;;;;;;;;;;7352140;19;20521;-61
2023/01/10 17:12:36;;;;;;;0.53;0.53;;;;;;;;;;7376868;19;20558;-60
2023/01/10 17:15:04;;;;;;;0.30;0.30;;;;;;;;;;7365183;19;20172;-61
2023/01/10 17:17:30;;;;;;;0.50;0.50;;;;;;;;;;7378318;19;20188;-59
2023/01/10 17:19:55;;;;;;;0.20;0.20;;;;;;;;;;7379114;19;20121;-59
2023/01/10 17:22:20;;;;;;;0.77;0.50;;;;;;;;;;7375213;19;20486;-59
2023/01/10 17:24:46;;;;;;;0.37;0.37;;;;;;;;;;7365510;19;20610;-59
2023/01/10 17:27:11;;;;;;;0.50;0.50;;;;;;;;;;7374599;19;20121;-59
2023/01/10 17:29:37;;;;;;;0.30;0.30;;;;;;;;;;7376440;19;20455;-59
2023/01/10 17:32:02;;;;;;;0.50;0.50;;;;;;;;;;7377701;19;20172;-59
2023/01/10 17:34:30;;;;;;;0.30;0.30;;;;;;;;;;7387740;19;20607;-59
2023/01/10 17:36:55;;;;;;;0.47;0.47;;;;;;;;;;7382321;19;20161;-59
2023/01/10 17:39:20;;;;;;;0.20;0.20;;;;;;;;;;7392367;19;20109;-60
2023/01/10 17:41:45;;;;;;;0.20;0.20;;;;;;;;;;7385023;19;20121;-60
2023/01/10 17:44:11;;;;;;;0.30;0.30;;;;;;;;;;7374235;19;20152;-60
2023/01/10 17:46:36;;;;;;;0.30;0.30;;;;;;;;;;7387067;19;20473;-61
2023/01/10 17:49:01;;;;;;;0.30;0.30;;;;;;;;;;7382778;19;20124;-60
2023/01/10 17:51:27;;;;;;;0.60;0.60;;;;;;;;;;7380849;19;20125;-60
2023/01/10 17:53:54;;;;;;;0.60;0.60;;;;;;;;;;7360546;19;20577;-60
2023/01/10 17:56:19;;;;;;;0.50;0.50;;;;;;;;;;7372001;19;20133;-60
2023/01/10 17:58:46;;;;;;;0.63;0.63;;;;;;;;;;7378406;19;20117;-60
2023/01/10 18:01:20;;;;;;;0.83;0.83;;;;;;;;;;7372452;19;20129;-60
2023/01/10 18:03:45;;;;;;;0.40;0.40;;;;;;;;;;7377679;19;20528;-60
2023/01/10 18:06:11;;;;;;;0.33;0.33;;;;;;;;;;7380637;19;20918;-60
2023/01/10 18:08:36;;;;;;;0.50;0.50;;;;;;;;;;7381175;19;20216;-60
2023/01/10 18:11:01;;;;;;;0.70;0.70;;;;;;;;;;7386006;19;20151;-60
2023/01/10 18:13:30;;;;;;;0.50;0.50;;;;;;;;;;7380714;19;20159;-60
2023/01/10 18:15:56;;;;;;;1.50;0.63;;;;;;;;;;7367237;19;20139;-60
2023/01/10 18:18:23;;;;;;;0.40;0.40;;;;;;;;;;7369947;19;20192;-60
2023/01/10 18:20:51;;;;;;;0.40;0.40;;;;;;;;;;7382573;19;20180;-60
2023/01/10 18:23:20;;;;;;;4.83;0.50;;;;;;;;;;7385764;19;20611;-60
2023/01/10 18:26:01;;;;;;;0.50;0.50;;;;;;;;;;7377561;19;20128;-60
2023/01/10 18:28:28;;;;;;;0.77;0.77;;;;;;;;;;7380064;19;20154;-60
2023/01/10 18:30:53;;;;;;;0.30;0.30;;;;;;;;;;7371103;19;20133;-60
2023/01/10 18:33:19;;;;;;;0.53;0.53;;;;;;;;;;7376836;19;20140;-60
2023/01/10 18:35:45;;;;;;;1.57;0.87;;;;;;;;;;7381434;19;20117;-60
2023/01/10 18:38:11;;;;;;;0.87;0.87;;;;;;;;;;7375264;19;20133;-60
2023/01/10 18:40:40;;;;;;;0.30;0.30;;;;;;;;;;7379732;19;20645;-60
2023/01/10 18:43:05;;;;;;;0.40;0.40;;;;;;;;;;7381929;19;20141;-60
2023/01/10 18:45:31;;;;;;;0.43;0.43;;;;;;;;;;7363180;19;20144;-60
2023/01/10 18:47:57;;;;;;;0.70;0.70;;;;;;;;;;7367277;19;20125;-60
2023/01/10 18:50:24;;;;;;;0.80;0.53;;;;;;;;;;7373361;19;20129;-59
2023/01/10 18:52:49;;;;;;;0.40;0.40;;;;;;;;;;7370755;19;20136;-60
2023/01/10 18:55:15;;;;;;;0.80;0.80;;;;;;;;;;7367103;19;20476;-60
2023/01/10 18:57:40;;;;;;;0.50;0.50;;;;;;;;;;7372455;19;20133;-60
2023/01/10 19:00:06;;;;;;;0.67;0.67;;;;;;;;;;7360826;19;20129;-60
2023/01/10 19:02:31;;;;;;;0.30;0.30;;;;;;;;;;7369709;19;20129;-60
2023/01/10 19:04:57;;;;;;;0.40;0.40;;;;;;;;;;7363072;19;20160;-60
2023/01/10 19:07:23;;;;;;;0.40;0.40;;;;;;;;;;7366181;19;20154;-60
2023/01/10 19:09:48;;;;;;;0.40;0.40;;;;;;;;;;7374230;19;20484;-60
2023/01/10 19:12:13;;;;;;;0.30;0.30;;;;;;;;;;7371737;19;20113;-60
2023/01/10 19:14:38;;;;;;;0.47;0.47;;;;;;;;;;7355888;19;20662;-61
2023/01/10 19:17:04;;;;;;;0.50;0.50;;;;;;;;;;7368104;19;20143;-60
2023/01/10 19:19:29;;;;;;;0.50;0.50;;;;;;;;;;7378223;19;20125;-60
2023/01/10 19:21:54;;;;;;;0.30;0.30;;;;;;;;;;7351691;19;20121;-60
2023/01/10 19:24:28;;;;;;;0.53;0.53;;;;;;;;;;7358529;19;20177;-60
2023/01/10 19:26:56;;;;;;;0.30;0.30;;;;;;;;;;7371360;19;20133;-60
2023/01/10 19:29:22;;;;;;;0.50;0.50;;;;;;;;;;7364223;19;20121;-60
2023/01/10 19:31:48;;;;;;;0.70;0.70;;;;;;;;;;7368317;19;20391;-60
2023/01/10 19:34:14;;;;;;;0.50;0.50;;;;;;;;;;7371476;19;20593;-60
2023/01/10 19:36:40;;;;;;;1.90;0.70;;;;;;;;;;7371386;19;20133;-60
2023/01/10 19:39:06;;;;;;;0.47;0.47;;;;;;;;;;7352845;19;20124;-60
2023/01/10 19:41:33;;;;;;;0.33;0.33;;;;;;;;;;7364092;19;20192;-60
2023/01/10 19:44:01;;;;;;;0.53;0.53;;;;;;;;;;7365349;19;20172;-60
2023/01/10 19:46:27;;;;;;;0.37;0.37;;;;;;;;;;7370471;19;20445;-60
2023/01/10 19:48:57;;;;;;;1.50;0.77;;;;;;;;;;7368213;19;20125;-60
2023/01/10 19:51:22;;;;;;;0.30;0.30;;;;;;;;;;7368783;19;20117;-60
2023/01/10 19:53:47;;;;;;;0.60;0.60;;;;;;;;;;7363186;19;20152;-60
2023/01/10 19:56:21;;;;;;;0.43;0.43;;;;;;;;;;7368634;19;20121;-61
2023/01/10 19:58:47;;;;;;;0.30;0.30;;;;;;;;;;7382560;19;20853;-60
2023/01/10 20:01:18;;;;;;;0.30;0.30;;;;;;;;;;7362351;19;20157;-60
2023/01/10 20:03:45;;;;;;;0.43;0.43;;;;;;;;;;7376852;19;20169;-60
2023/01/10 20:06:13;;;;;;;0.80;0.80;;;;;;;;;;7357256;19;20172;-60
2023/01/10 20:08:39;;;;;;;0.37;0.37;;;;;;;;;;7375085;19;20581;-60
2023/01/10 20:11:05;;;;;;;0.30;0.30;;;;;;;;;;7382548;19;20133;-61
2023/01/10 20:13:32;;;;;;;0.40;0.40;;;;;;;;;;7381754;19;20150;-61
2023/01/10 20:15:57;;;;;;;0.30;0.30;;;;;;;;;;7358387;19;20156;-60
2023/01/10 20:18:22;;;;;;;0.53;0.53;;;;;;;;;;7358579;19;20121;-60
2023/01/10 20:20:48;;;;;;;0.30;0.30;;;;;;;;;;7364725;19;20473;-60
2023/01/10 20:23:13;;;;;;;0.30;0.30;;;;;;;;;;7369711;19;20156;-60
2023/01/10 20:25:38;;;;;;;0.50;0.50;;;;;;;;;;7372083;19;20155;-61
2023/01/10 20:28:04;;;;;;;0.47;0.47;;;;;;;;;;7379626;19;20117;-60
2023/01/10 20:30:29;;;;;;;0.30;0.30;;;;;;;;;;7379275;19;20147;-60
2023/01/10 20:32:54;;;;;;;0.53;0.53;;;;;;;;;;7383124;19;20133;-60
2023/01/10 20:35:20;;;;;;;0.40;0.40;;;;;;;;;;7386795;19;20795;-60
2023/01/10 20:37:46;;;;;;;0.60;0.60;;;;;;;;;;7382668;19;21138;-60
2023/01/10 20:40:12;;;;;;;0.33;0.33;;;;;;;;;;7387210;19;20646;-60
2023/01/10 20:42:37;;;;;;;0.60;0.60;;;;;;;;;;7360485;19;20129;-60
2023/01/10 20:45:03;;;;;;;0.43;0.43;;;;;;;;;;7372614;19;20178;-60
2023/01/10 20:47:28;;;;;;;0.37;0.37;;;;;;;;;;7377137;19;20140;-61
2023/01/10 20:49:53;;;;;;;0.20;0.20;;;;;;;;;;7375038;19;20162;-61
2023/01/10 20:52:19;;;;;;;0.53;0.53;;;;;;;;;;7385811;19;20120;-61
2023/01/10 20:54:44;;;;;;;0.73;0.70;;;;;;;;;;7383887;19;20153;-61
2023/01/10 20:57:09;;;;;;;0.30;0.30;;;;;;;;;;7379630;19;20505;-61
2023/01/10 20:59:34;;;;;;;0.97;0.67;;;;;;;;;;7373523;19;20128;-61
2023/01/10 21:02:00;;;;;;;0.70;0.70;;;;;;;;;;7365563;19;20136;-60
2023/01/10 21:04:26;;;;;;;0.30;0.30;;;;;;;;;;7377197;19;20521;-61
2023/01/10 21:06:52;;;;;;;0.50;0.50;;;;;;;;;;7379205;19;20655;-60
2023/01/10 21:09:18;;;;;;;0.30;0.30;;;;;;;;;;7386360;19;20144;-60
2023/01/10 21:11:43;;;;;;;0.30;0.30;;;;;;;;;;7388420;19;20189;-60
2023/01/10 21:14:09;;;;;;;0.50;0.50;;;;;;;;;;7386938;19;20190;-60
2023/01/10 21:16:34;;;;;;;0.33;0.33;;;;;;;;;;7388081;19;20149;-60
2023/01/10 21:19:00;;;;;;;0.50;0.50;;;;;;;;;;7379689;19;20141;-61
2023/01/10 21:21:25;;;;;;;2.67;0.83;;;;;;;;;;7381560;19;20113;-61
2023/01/10 21:23:52;;;;;;;0.63;0.60;;;;;;;;;;7379560;19;20162;-61
2023/01/10 21:26:17;;;;;;;0.90;0.60;;;;;;;;;;7385016;19;20569;-60
2023/01/10 21:28:47;;;;;;;0.83;0.83;;;;;;;;;;7379751;19;20121;-60
2023/01/10 21:31:15;;;;;;;0.57;0.40;;;;;;;;;;7383192;19;20462;-61
2023/01/10 21:33:40;;;;;;;0.40;0.40;;;;;;;;;;7383637;19;20152;-60
2023/01/10 21:36:06;;;;;;;0.20;0.20;;;;;;;;;;7367083;19;20696;-60
2023/01/10 21:38:32;;;;;;;0.30;0.30;;;;;;;;;;7361897;19;20122;-60
2023/01/10 21:41:08;;;;;;;0.40;0.40;;;;;;;;;;7370475;19;20148;-60
2023/01/10 21:43:33;;;;;;;0.43;0.43;;;;;;;;;;7368221;19;20155;-60
2023/01/10 21:45:59;;;;;;;0.73;0.50;;;;;;;;;;7380811;19;20129;-60
2023/01/10 21:48:24;;;;;;;0.50;0.40;;;;;;;;;;7387266;19;20188;-60
2023/01/10 21:50:51;;;;;;;0.50;0.50;;;;;;;;;;7388694;19;20120;-60
2023/01/10 21:53:16;;;;;;;0.67;0.67;;;;;;;;;;7384715;19;20156;-60
2023/01/10 21:55:43;;;;;;;0.30;0.30;;;;;;;;;;7374515;19;20453;-60
2023/01/10 21:58:08;;;;;;;0.30;0.30;;;;;;;;;;7384364;19;20133;-60
2023/01/10 22:00:33;;;;;;;0.30;0.30;;;;;;;;;;7375528;19;20141;-60
2023/01/10 22:02:59;;;;;;;0.30;0.30;;;;;;;;;;7376666;19;20132;-60
2023/01/10 22:05:24;;;;;;;0.37;0.37;;;;;;;;;;7385366;19;20132;-60
2023/01/10 22:07:50;;;;;;;0.67;0.67;;;;;;;;;;7386105;19;20132;-60
2023/01/10 22:10:15;;;;;;;0.40;0.40;;;;;;;;;;7377583;19;20581;-60
2023/01/10 22:12:40;;;;;;;0.40;0.40;;;;;;;;;;7376962;19;20587;-60
2023/01/10 22:15:06;;;;;;;0.20;0.20;;;;;;;;;;7379468;19;20260;-60
2023/01/10 22:17:32;;;;;;;0.30;0.30;;;;;;;;;;7381951;19;20149;-60
2023/01/10 22:19:57;;;;;;;0.40;0.40;;;;;;;;;;7389967;19;20614;-60
2023/01/10 22:22:22;;;;;;;0.30;0.30;;;;;;;;;;7394352;19;20133;-60
2023/01/10 22:24:48;;;;;;;0.43;0.43;;;;;;;;;;7389236;19;20141;-60
2023/01/10 22:27:14;;;;;;;0.40;0.40;;;;;;;;;;7391418;19;20149;-60
2023/01/10 22:29:39;;;;;;;0.37;0.30;;;;;;;;;;7392364;19;20581;-60
2023/01/10 22:32:05;;;;;;;0.53;0.53;;;;;;;;;;7388279;19;20117;-60
2023/01/10 22:34:30;;;;;;;0.70;0.70;;;;;;;;;;7383681;19;20245;-60
2023/01/10 22:36:56;;;;;;;0.20;0.20;;;;;;;;;;7386176;19;20493;-61
2023/01/10 22:39:21;;;;;;;0.40;0.40;;;;;;;;;;7393124;19;20224;-60
2023/01/10 22:41:46;;;;;;;0.30;0.30;;;;;;;;;;7394870;19;20590;-60
2023/01/10 22:44:22;;;;;;;0.30;0.30;;;;;;;;;;7395078;19;20145;-60
2023/01/10 22:46:53;;;;;;;0.40;0.40;;;;;;;;;;7395062;19;20145;-60
2023/01/10 22:49:19;;;;;;;0.30;0.30;;;;;;;;;;7395720;19;20150;-60
2023/01/10 22:51:44;;;;;;;0.37;0.37;;;;;;;;;;7396608;19;20117;-60
2023/01/10 22:54:14;;;;;;;0.30;0.30;;;;;;;;;;7387515;19;20217;-60
2023/01/10 22:59:07;;;;;;;0.30;0.30;;;;;;;;;;7388154;19;20121;-61
2023/01/10 23:01:33;;;;;;;0.43;0.43;;;;;;;;;;7392660;19;20188;-60
